createdAt,value
2023-04-19T00:02:02.785Z,2.20
2023-04-19T00:04:30.171Z,2.57
2023-04-19T00:06:58.788Z,2.00
2023-04-19T00:09:25.501Z,2.40
2023-04-19T00:11:52.481Z,2.57
2023-04-19T00:14:18.977Z,2.07
2023-04-19T00:16:45.672Z,2.30
2023-04-19T00:19:12.264Z,2.20
2023-04-19T00:21:38.728Z,2.33
2023-04-19T00:24:05.510Z,2.30
2023-04-19T00:26:32.418Z,1.97
2023-04-19T00:28:59.604Z,2.60
2023-04-19T00:31:26.166Z,1.90
2023-04-19T00:33:52.711Z,2.43
2023-04-19T00:36:19.472Z,1.80
2023-04-19T00:38:47.450Z,1.97
2023-04-19T00:41:13.956Z,2.13
2023-04-19T00:43:40.434Z,2.07
2023-04-19T00:46:07.407Z,2.33
2023-04-19T00:48:36.224Z,1.93
2023-04-19T00:51:04.045Z,2.20
2023-04-19T00:53:31.041Z,2.43
2023-04-19T00:55:59.802Z,1.80
2023-04-19T00:58:30.096Z,1.83
2023-04-19T01:00:56.896Z,2.10
2023-04-19T01:03:24.024Z,1.60
2023-04-19T01:05:51.062Z,1.50
2023-04-19T01:08:17.531Z,2.10
2023-04-19T01:10:45.237Z,2.13
2023-04-19T01:13:12.020Z,2.07
2023-04-19T01:15:38.652Z,1.77
2023-04-19T01:18:05.446Z,2.73
2023-04-19T01:20:32.153Z,2.00
2023-04-19T01:22:58.878Z,1.50
2023-04-19T01:25:27.636Z,1.80
2023-04-19T01:27:54.099Z,1.70
2023-04-19T01:30:23.630Z,2.37
2023-04-19T01:32:50.402Z,1.70
2023-04-19T01:35:17.062Z,1.50
2023-04-19T01:37:44.224Z,1.93
2023-04-19T01:40:10.944Z,1.80
2023-04-19T01:42:37.425Z,1.70
2023-04-19T01:45:04.292Z,1.90
2023-04-19T01:47:30.857Z,1.83
2023-04-19T01:49:57.350Z,1.90
2023-04-19T01:52:24.004Z,2.07
2023-04-19T01:54:50.728Z,1.60
2023-04-19T01:57:18.767Z,2.00
2023-04-19T01:59:45.408Z,1.77
2023-04-19T02:02:12.328Z,2.30
2023-04-19T02:04:38.892Z,2.43
2023-04-19T02:07:05.972Z,2.30
2023-04-19T02:09:35.519Z,2.00
2023-04-19T02:12:02.230Z,2.23
2023-04-19T02:14:29.028Z,2.10
2023-04-19T02:16:55.925Z,2.17
2023-04-19T02:19:22.524Z,2.13
2023-04-19T02:21:49.759Z,1.90
2023-04-19T02:24:16.365Z,2.00
2023-04-19T02:26:43.280Z,1.80
2023-04-19T02:29:09.893Z,2.40
2023-04-19T02:31:38.242Z,1.80
2023-04-19T02:34:04.756Z,2.37
2023-04-19T02:36:33.607Z,1.63
2023-04-19T02:39:02.625Z,2.10
2023-04-19T02:41:29.049Z,2.20
2023-04-19T02:43:56.186Z,2.17
2023-04-19T02:46:22.712Z,1.90
2023-04-19T02:48:49.298Z,2.33
2023-04-19T02:51:16.797Z,1.70
2023-04-19T02:53:43.634Z,2.30
2023-04-19T02:56:10.097Z,2.03
2023-04-19T02:58:36.613Z,2.40
2023-04-19T03:01:05.574Z,1.87
2023-04-19T03:03:32.233Z,2.53
2023-04-19T03:05:58.930Z,3.47
2023-04-19T03:08:25.579Z,2.60
2023-04-19T03:10:52.372Z,2.10
2023-04-19T03:13:18.863Z,2.60
2023-04-19T03:15:45.491Z,2.43
2023-04-19T03:18:12.046Z,2.23
2023-04-19T03:20:41.640Z,2.60
2023-04-19T03:23:08.367Z,2.73
2023-04-19T03:25:34.902Z,1.57
2023-04-19T03:28:17.120Z,2.20
2023-04-19T03:31:03.648Z,2.43
2023-04-19T03:33:30.930Z,2.40
2023-04-19T03:35:57.514Z,2.27
2023-04-19T03:38:24.313Z,2.00
2023-04-19T03:40:51.642Z,2.07
2023-04-19T03:43:20.079Z,2.10
2023-04-19T03:45:46.733Z,2.70
2023-04-19T03:48:13.514Z,2.17
2023-04-19T03:50:40.310Z,2.60
2023-04-19T03:53:07.558Z,2.27
2023-04-19T03:55:34.218Z,3.63
2023-04-19T03:58:01.396Z,3.03
2023-04-19T04:00:48.452Z,7.80
2023-04-19T04:03:15.255Z,7.30
2023-04-19T04:05:42.069Z,8.97
2023-04-19T04:08:09.417Z,6.00
2023-04-19T04:10:36.114Z,5.87
2023-04-19T04:13:03.336Z,5.50
2023-04-19T04:15:46.148Z,3.53
2023-04-19T04:18:13.874Z,5.20
2023-04-19T04:20:41.170Z,5.47
2023-04-19T04:23:10.804Z,5.60
2023-04-19T04:25:40.693Z,3.30
2023-04-19T04:28:11.259Z,3.30
2023-04-19T04:30:40.524Z,5.10
2023-04-19T04:33:11.942Z,8.60
2023-04-19T04:35:39.799Z,4.00
2023-04-19T04:38:21.381Z,4.27
2023-04-19T04:40:53.619Z,3.30
2023-04-19T04:43:24.225Z,2.60
2023-04-19T04:45:51.848Z,2.80
2023-04-19T04:48:18.993Z,2.50
2023-04-19T04:50:45.523Z,2.27
2023-04-19T04:53:13.635Z,3.30
2023-04-19T04:55:43.105Z,2.37
2023-04-19T04:58:09.676Z,2.90
2023-04-19T05:00:57.407Z,2.03
2023-04-19T05:03:25.480Z,2.50
2023-04-19T05:05:57.696Z,2.17
2023-04-19T05:08:25.706Z,2.60
2023-04-19T05:10:55.920Z,2.40
2023-04-19T05:13:25.767Z,2.30
2023-04-19T05:15:52.395Z,2.03
2023-04-19T05:18:19.179Z,2.00
2023-04-19T05:20:46.813Z,2.70
2023-04-19T05:23:21.231Z,2.30
2023-04-19T05:25:49.795Z,3.20
2023-04-19T05:28:17.482Z,2.17
2023-04-19T05:30:56.090Z,2.40
2023-04-19T05:33:25.792Z,1.93
2023-04-19T05:35:54.721Z,2.57
2023-04-19T05:38:21.169Z,1.90
2023-04-19T05:40:49.782Z,2.70
2023-04-19T05:43:16.254Z,2.00
2023-04-19T05:45:43.343Z,1.90
2023-04-19T05:48:09.922Z,1.70
2023-04-19T05:51:02.988Z,2.20
2023-04-19T05:53:46.335Z,1.90
2023-04-19T05:56:13.206Z,1.83
2023-04-19T05:58:40.231Z,1.70
2023-04-19T06:01:06.948Z,1.77
2023-04-19T06:03:33.961Z,1.80
2023-04-19T06:06:00.729Z,2.07
2023-04-19T06:08:27.323Z,1.43
2023-04-19T06:11:00.178Z,1.57
2023-04-19T06:13:32.059Z,2.30
2023-04-19T06:15:58.576Z,1.90
2023-04-19T06:18:25.774Z,1.80
2023-04-19T06:20:53.150Z,1.73
2023-04-19T06:23:19.914Z,1.57
2023-04-19T06:25:48.647Z,1.40
2023-04-19T06:28:15.443Z,1.70
2023-04-19T06:30:42.420Z,1.87
2023-04-19T06:33:08.883Z,1.40
2023-04-19T06:35:35.447Z,1.67
2023-04-19T06:38:02.128Z,1.57
2023-04-19T06:40:31.862Z,1.40
2023-04-19T06:42:58.521Z,1.47
2023-04-19T06:45:25.017Z,1.83
2023-04-19T06:47:51.690Z,1.53
2023-04-19T06:50:18.655Z,1.80
2023-04-19T06:52:45.577Z,1.30
2023-04-19T06:55:12.593Z,1.37
2023-04-19T06:57:39.073Z,1.40
2023-04-19T07:00:06.778Z,1.30
2023-04-19T07:02:34.010Z,1.10
2023-04-19T07:05:01.008Z,1.80
2023-04-19T07:07:27.508Z,1.70
2023-04-19T07:09:54.830Z,1.33
2023-04-19T07:12:21.730Z,0.90
2023-04-19T07:14:48.570Z,1.10
2023-04-19T07:17:15.094Z,1.60
2023-04-19T07:19:42.600Z,1.43
2023-04-19T07:22:09.293Z,0.90
2023-04-19T07:24:35.868Z,1.17
2023-04-19T07:27:02.601Z,1.43
2023-04-19T07:29:29.132Z,1.13
2023-04-19T07:31:56.129Z,1.33
2023-04-19T07:34:22.604Z,1.50
2023-04-19T07:36:49.651Z,1.00
2023-04-19T07:39:16.140Z,1.03
2023-04-19T07:41:42.650Z,1.23
2023-04-19T07:44:09.224Z,1.70
2023-04-19T07:46:35.977Z,1.27
2023-04-19T07:49:02.898Z,1.20
2023-04-19T07:51:29.678Z,1.40
2023-04-19T07:53:56.145Z,1.50
2023-04-19T07:56:23.052Z,1.27
2023-04-19T07:59:04.316Z,1.27
2023-04-19T08:01:35.362Z,1.40
2023-04-19T08:04:02.192Z,1.50
2023-04-19T08:06:30.513Z,1.50
2023-04-19T08:08:57.034Z,1.20
2023-04-19T08:11:25.034Z,1.30
2023-04-19T08:14:04.697Z,1.10
2023-04-19T08:19:05.689Z,1.67
2023-04-19T08:21:40.774Z,1.30
2023-04-19T08:24:07.871Z,1.20
2023-04-19T08:26:35.430Z,1.47
2023-04-19T08:29:01.882Z,1.53
2023-04-19T08:31:28.865Z,1.20
2023-04-19T08:33:55.740Z,1.20
2023-04-19T08:36:34.793Z,1.20
2023-04-19T08:39:12.586Z,1.60
2023-04-19T08:42:04.800Z,1.10
2023-04-19T08:44:36.721Z,1.27
2023-04-19T08:47:04.658Z,1.20
2023-04-19T08:49:34.593Z,1.50
2023-04-19T08:52:01.392Z,1.33
2023-04-19T08:54:29.903Z,1.47
2023-04-19T08:56:59.111Z,1.60
2023-04-19T08:59:25.622Z,1.30
2023-04-19T09:01:52.154Z,1.43
2023-04-19T09:04:35.565Z,1.50
2023-04-19T09:07:02.627Z,1.13
2023-04-19T09:09:37.050Z,1.10
2023-04-19T09:12:19.918Z,1.13
2023-04-19T09:15:00.474Z,1.33
2023-04-19T09:17:29.276Z,1.40
2023-04-19T09:19:55.832Z,1.23
2023-04-19T09:22:22.342Z,1.60
2023-04-19T09:27:34.906Z,1.27
2023-04-19T09:30:02.038Z,1.30
2023-04-19T09:35:13.884Z,1.67
2023-04-19T09:38:02.025Z,1.37
2023-04-19T09:40:28.460Z,1.40
2023-04-19T09:48:04.673Z,1.20
2023-04-19T09:50:32.237Z,1.80
2023-04-19T09:53:00.674Z,1.40
2023-04-19T09:55:28.774Z,1.10
2023-04-19T09:57:56.905Z,1.70
2023-04-19T10:00:24.028Z,1.63
2023-04-19T10:02:58.445Z,1.23
2023-04-19T10:05:26.439Z,1.30
2023-04-19T10:07:59.701Z,1.17
2023-04-19T10:10:41.426Z,1.43
2023-04-19T10:15:51.226Z,1.73
2023-04-19T10:18:19.340Z,1.53
2023-04-19T10:20:54.337Z,1.00
2023-04-19T10:23:21.813Z,1.30
2023-04-19T10:25:48.763Z,1.30
2023-04-19T10:28:15.951Z,1.40
2023-04-19T10:30:52.717Z,1.20
2023-04-19T10:33:31.797Z,1.40
2023-04-19T10:35:59.210Z,1.43
2023-04-19T10:38:46.626Z,1.50
2023-04-19T10:41:18.201Z,1.30
2023-04-19T10:43:48.792Z,1.27
2023-04-19T10:46:36.178Z,1.07
2023-04-19T10:49:03.928Z,1.33
2023-04-19T10:51:35.666Z,1.40
2023-04-19T10:54:03.937Z,1.30
2023-04-19T10:56:34.329Z,1.20
2023-04-19T10:59:01.273Z,1.53
2023-04-19T11:01:40.772Z,1.30
2023-04-19T11:04:08.732Z,1.00
2023-04-19T11:06:36.164Z,1.40
2023-04-19T11:09:05.460Z,1.20
2023-04-19T11:11:36.044Z,1.23
2023-04-19T11:14:04.170Z,1.00
2023-04-19T11:16:45.158Z,1.37
2023-04-19T11:19:19.173Z,1.63
2023-04-19T11:21:46.475Z,1.50
2023-04-19T11:24:13.130Z,1.30
2023-04-19T11:26:42.274Z,1.20
2023-04-19T11:29:09.322Z,1.10
2023-04-19T11:31:36.434Z,1.43
2023-04-19T11:34:03.166Z,1.23
2023-04-19T11:36:31.815Z,1.60
2023-04-19T11:38:58.720Z,1.60
2023-04-19T11:41:25.253Z,1.27
2023-04-19T11:43:51.916Z,1.30
2023-04-19T11:46:18.599Z,1.40
2023-04-19T11:48:54.704Z,1.33
2023-04-19T11:51:21.561Z,1.47
2023-04-19T11:53:48.264Z,2.00
2023-04-19T11:56:16.287Z,1.70
2023-04-19T11:58:50.608Z,1.70
2023-04-19T12:01:22.472Z,1.80
2023-04-19T12:03:50.519Z,3.20
2023-04-19T12:06:17.278Z,2.10
2023-04-19T12:08:45.416Z,1.70
2023-04-19T12:11:11.873Z,1.77
2023-04-19T12:13:38.437Z,1.97
2023-04-19T12:16:04.992Z,1.80
2023-04-19T12:18:51.148Z,1.80
2023-04-19T12:21:27.826Z,2.57
2023-04-19T12:23:55.473Z,1.90
2023-04-19T12:26:21.924Z,1.90
2023-04-19T12:28:48.507Z,1.87
2023-04-19T12:31:16.446Z,1.67
2023-04-19T12:33:42.883Z,1.93
2023-04-19T12:36:09.308Z,2.10
2023-04-19T12:38:35.830Z,1.50
2023-04-19T12:41:02.498Z,2.27
2023-04-19T12:43:30.794Z,1.73
2023-04-19T12:45:58.307Z,2.20
2023-04-19T12:48:28.195Z,1.80
2023-04-19T12:50:54.900Z,2.53
2023-04-19T12:53:23.493Z,2.30
2023-04-19T12:55:50.584Z,2.33
2023-04-19T12:58:17.901Z,2.60
2023-04-19T13:00:44.626Z,2.00
2023-04-19T13:03:14.698Z,2.47
2023-04-19T13:05:41.897Z,2.30
2023-04-19T13:08:08.806Z,2.40
2023-04-19T13:10:35.547Z,2.17
2023-04-19T13:13:02.029Z,2.97
2023-04-19T13:15:29.327Z,3.10
2023-04-19T13:17:56.111Z,2.63
2023-04-19T13:20:22.719Z,2.03
2023-04-19T13:22:49.466Z,2.70
2023-04-19T13:25:15.902Z,2.37
2023-04-19T13:27:42.365Z,2.30
2023-04-19T13:30:09.165Z,2.40
2023-04-19T13:32:35.858Z,2.20
2023-04-19T13:35:02.487Z,1.83
2023-04-19T13:37:29.143Z,1.83
2023-04-19T13:40:07.022Z,2.10
2023-04-19T13:42:41.684Z,2.40
2023-04-19T13:45:09.516Z,1.90
2023-04-19T13:47:36.028Z,2.73
2023-04-19T13:50:02.560Z,1.83
2023-04-19T13:52:29.973Z,1.50
2023-04-19T13:54:56.593Z,2.43
2023-04-19T13:57:23.132Z,1.90
2023-04-19T13:59:49.662Z,2.00
2023-04-19T14:02:16.236Z,1.93
2023-04-19T14:04:42.997Z,2.00
2023-04-19T14:07:09.872Z,2.10
2023-04-19T14:09:36.985Z,1.97
2023-04-19T14:12:04.448Z,1.83
2023-04-19T14:14:32.461Z,2.50
2023-04-19T14:16:59.587Z,2.60
2023-04-19T14:19:26.706Z,2.13
2023-04-19T14:21:53.241Z,2.53
2023-04-19T14:24:19.699Z,1.97
2023-04-19T14:26:48.733Z,2.30
2023-04-19T14:29:21.110Z,2.17
2023-04-19T14:31:47.796Z,2.20
2023-04-19T14:34:14.364Z,2.07
2023-04-19T14:36:40.823Z,2.30
2023-04-19T14:39:08.376Z,2.30
2023-04-19T14:41:34.844Z,1.97
2023-04-19T14:44:01.295Z,2.07
2023-04-19T14:46:27.837Z,1.70
2023-04-19T14:48:54.378Z,2.70
2023-04-19T14:51:21.256Z,2.30
2023-04-19T14:53:47.707Z,2.30
2023-04-19T14:56:14.284Z,1.63
2023-04-19T14:58:40.815Z,2.17
2023-04-19T15:01:10.832Z,1.90
2023-04-19T15:03:38.051Z,2.03
2023-04-19T15:06:05.417Z,1.70
2023-04-19T15:08:31.866Z,2.33
2023-04-19T15:10:59.078Z,2.10
2023-04-19T15:13:25.863Z,2.00
2023-04-19T15:15:52.424Z,1.97
2023-04-19T15:18:18.919Z,2.33
2023-04-19T15:20:45.511Z,2.70
2023-04-19T15:23:12.019Z,1.90
2023-04-19T15:25:38.525Z,2.10
2023-04-19T15:28:05.536Z,1.70
2023-04-19T15:30:31.987Z,2.97
2023-04-19T15:32:58.925Z,2.23
2023-04-19T15:35:25.530Z,2.03
2023-04-19T15:37:52.123Z,2.17
2023-04-19T15:40:18.844Z,2.13
2023-04-19T15:42:46.152Z,2.27
2023-04-19T15:45:13.025Z,2.03
2023-04-19T15:47:39.504Z,2.27
2023-04-19T15:50:06.397Z,2.17
2023-04-19T15:52:32.960Z,2.43
2023-04-19T15:55:00.106Z,2.33
2023-04-19T15:57:26.574Z,1.90
2023-04-19T15:59:53.122Z,2.10
2023-04-19T16:02:19.819Z,1.83
2023-04-19T16:04:47.523Z,1.80
2023-04-19T16:07:14.210Z,2.10
2023-04-19T16:09:40.855Z,2.03
2023-04-19T16:12:07.331Z,2.33
2023-04-19T16:14:33.845Z,3.70
2023-04-19T16:17:02.962Z,2.03
2023-04-19T16:19:29.728Z,2.17
2023-04-19T16:21:56.807Z,2.30
2023-04-19T16:24:23.300Z,2.13
2023-04-19T16:26:50.089Z,2.13
2023-04-19T16:29:16.815Z,1.90
2023-04-19T16:31:43.618Z,2.23
2023-04-19T16:34:10.582Z,2.27
2023-04-19T16:36:37.154Z,2.50
2023-04-19T16:39:03.712Z,2.53
2023-04-19T16:41:30.595Z,2.70
2023-04-19T16:43:57.039Z,1.67
2023-04-19T16:46:23.553Z,2.70
2023-04-19T16:48:50.881Z,2.97
2023-04-19T16:51:17.513Z,3.57
2023-04-19T16:53:46.400Z,4.00
2023-04-19T16:56:13.599Z,6.10
2023-04-19T16:58:40.321Z,4.60
2023-04-19T17:01:09.273Z,8.00
2023-04-19T17:03:36.350Z,4.17
2023-04-19T17:06:03.004Z,7.30
2023-04-19T17:08:29.772Z,2.40
2023-04-19T17:10:56.470Z,2.00
2023-04-19T17:13:22.926Z,3.73
2023-04-19T17:15:49.571Z,9.70
2023-04-19T17:18:16.488Z,2.47
2023-04-19T17:20:43.007Z,9.13
2023-04-19T17:23:09.522Z,9.30
2023-04-19T17:25:36.076Z,3.57
2023-04-19T17:28:02.573Z,4.50
2023-04-19T17:30:29.022Z,2.30
2023-04-19T17:32:55.820Z,2.90
2023-04-19T17:35:22.409Z,2.10
2023-04-19T17:37:48.880Z,2.07
2023-04-19T17:40:15.521Z,1.63
2023-04-19T17:42:42.086Z,1.37
2023-04-19T17:45:11.045Z,1.80
2023-04-19T17:47:40.824Z,2.00
2023-04-19T17:50:08.708Z,2.00
2023-04-19T17:52:35.633Z,2.07
2023-04-19T17:55:04.313Z,4.77
2023-04-19T17:57:33.838Z,2.30
2023-04-19T18:00:00.889Z,2.10
2023-04-19T18:02:28.054Z,2.00
2023-04-19T18:04:55.097Z,1.87
2023-04-19T18:07:21.611Z,2.20
2023-04-19T18:09:48.527Z,2.27
2023-04-19T18:12:15.105Z,2.07
2023-04-19T18:14:41.618Z,2.00
2023-04-19T18:17:08.709Z,2.20
2023-04-19T18:19:35.238Z,1.87
2023-04-19T18:22:02.203Z,2.10
2023-04-19T18:24:28.677Z,1.93
2023-04-19T18:26:55.140Z,2.33
2023-04-19T18:29:23.136Z,1.73
2023-04-19T18:31:50.163Z,1.57
2023-04-19T18:34:16.737Z,2.10
2023-04-19T18:36:43.276Z,2.10
2023-04-19T18:39:10.173Z,1.80
2023-04-19T18:41:36.688Z,2.40
2023-04-19T18:46:32.901Z,2.00
2023-04-19T18:48:59.894Z,1.70
2023-04-19T18:51:27.412Z,1.43
2023-04-19T18:53:54.338Z,2.00
2023-04-19T18:56:21.239Z,1.83
2023-04-19T18:58:49.033Z,1.90
2023-04-19T19:01:15.730Z,2.03
2023-04-19T19:06:16.423Z,2.40
2023-04-19T19:08:43.331Z,2.60
2023-04-19T19:11:29.091Z,1.70
2023-04-19T19:13:56.515Z,2.60
2023-04-19T19:16:23.259Z,2.40
2023-04-19T19:18:51.907Z,2.20
2023-04-19T19:21:18.746Z,1.67
2023-04-19T19:23:45.587Z,2.10
2023-04-19T19:26:13.037Z,2.17
2023-04-19T19:28:39.998Z,1.90
2023-04-19T19:31:06.650Z,2.20
2023-04-19T19:33:33.330Z,2.00
2023-04-19T19:35:59.881Z,2.33
2023-04-19T19:38:26.724Z,2.43
2023-04-19T19:41:34.754Z,1.97
2023-04-19T19:43:40.488Z,3.93
2023-04-19T19:46:07.262Z,2.63
2023-04-19T19:48:40.795Z,2.20
2023-04-19T19:51:41.750Z,2.50
2023-04-19T19:53:56.329Z,1.83
2023-04-19T19:56:24.536Z,2.40
2023-04-19T19:58:52.091Z,2.50
2023-04-19T20:01:22.004Z,2.40
2023-04-19T20:03:49.356Z,2.37
2023-04-19T20:06:57.139Z,2.60
2023-04-19T20:09:04.731Z,2.20
2023-04-19T20:11:31.586Z,2.70
2023-04-19T20:13:58.043Z,2.10
2023-04-19T20:16:24.968Z,2.67
2023-04-19T20:18:52.635Z,3.60
2023-04-19T20:21:19.663Z,3.83
2023-04-19T20:23:47.153Z,5.20
2023-04-19T20:26:13.701Z,3.10
2023-04-19T20:28:40.216Z,3.43
2023-04-19T20:31:06.664Z,2.50
2023-04-19T20:33:33.464Z,2.13
2023-04-19T20:36:00.556Z,3.53
2023-04-19T20:38:27.382Z,4.03
2023-04-19T20:40:53.899Z,2.63
2023-04-19T20:43:20.537Z,3.30
2023-04-19T20:45:47.492Z,1.43
2023-04-19T20:48:14.058Z,2.17
2023-04-19T20:50:41.564Z,1.80
2023-04-19T20:53:08.099Z,3.20
2023-04-19T20:55:35.019Z,1.97
2023-04-19T20:58:02.480Z,1.60
2023-04-19T21:00:29.102Z,1.90
2023-04-19T21:02:55.877Z,1.70
2023-04-19T21:05:22.564Z,3.03
2023-04-19T21:07:49.092Z,1.57
2023-04-19T21:10:17.286Z,2.17
2023-04-19T21:12:43.830Z,1.57
2023-04-19T21:15:12.034Z,1.73
2023-04-19T21:17:38.674Z,1.70
2023-04-19T21:20:11.989Z,1.67
2023-04-19T21:22:41.724Z,1.70
2023-04-19T21:25:08.760Z,2.03
2023-04-19T21:27:36.449Z,2.07
2023-04-19T21:30:04.858Z,2.40
2023-04-19T21:32:31.834Z,2.37
2023-04-19T21:34:58.806Z,1.60
2023-04-19T21:37:25.744Z,2.00
2023-04-19T21:39:52.215Z,1.93
2023-04-19T21:42:18.803Z,2.30
2023-04-19T21:44:45.855Z,3.03
2023-04-19T21:47:12.688Z,2.40
2023-04-19T21:49:39.211Z,1.70
2023-04-19T21:52:06.007Z,2.47
2023-04-19T21:54:34.306Z,1.63
2023-04-19T21:57:01.630Z,2.83
2023-04-19T21:59:28.720Z,2.47
2023-04-19T22:01:55.629Z,2.90
2023-04-19T22:04:22.979Z,3.20
2023-04-19T22:06:49.482Z,3.10
2023-04-19T22:09:16.230Z,2.67
2023-04-19T22:11:42.953Z,2.50
2023-04-19T22:14:10.021Z,2.77
2023-04-19T22:16:37.329Z,2.43
2023-04-19T22:19:04.303Z,3.10
2023-04-19T22:21:32.143Z,2.47
2023-04-19T22:23:59.536Z,1.93
2023-04-19T22:26:26.727Z,2.90
2023-04-19T22:28:53.671Z,2.10
2023-04-19T22:31:20.365Z,2.10
2023-04-19T22:33:47.135Z,2.70
2023-04-19T22:36:14.287Z,2.00
2023-04-19T22:38:41.112Z,2.93
2023-04-19T22:41:07.582Z,2.87
2023-04-19T22:43:34.116Z,2.30
2023-04-19T22:46:01.368Z,2.40
2023-04-19T22:48:30.044Z,2.53
2023-04-19T22:50:56.834Z,2.10
2023-04-19T22:53:23.872Z,2.40
2023-04-19T22:55:50.554Z,2.40
2023-04-19T22:58:18.647Z,3.43
2023-04-19T23:00:45.538Z,2.30
2023-04-19T23:03:12.111Z,2.40
2023-04-19T23:05:40.141Z,2.57
2023-04-19T23:08:07.203Z,2.67
2023-04-19T23:10:38.096Z,2.30
2023-04-19T23:13:05.862Z,2.90
2023-04-19T23:15:33.096Z,2.20
2023-04-19T23:18:02.113Z,2.50
2023-04-19T23:20:30.283Z,2.30
2023-04-19T23:22:57.621Z,2.63
2023-04-19T23:25:24.674Z,2.37
2023-04-19T23:27:51.398Z,2.10
2023-04-19T23:30:18.223Z,2.30
2023-04-19T23:32:44.848Z,3.57
2023-04-19T23:35:11.701Z,3.23
2023-04-19T23:37:38.332Z,3.13
2023-04-19T23:40:08.272Z,3.03
2023-04-19T23:42:35.885Z,2.33
2023-04-19T23:45:02.431Z,2.40
2023-04-19T23:47:28.946Z,2.80
2023-04-19T23:49:56.346Z,3.07
2023-04-19T23:52:23.524Z,2.37
2023-04-19T23:54:50.443Z,2.60
2023-04-19T23:57:18.605Z,2.73
2023-04-19T23:59:45.693Z,3.13
